sensor_id;sensor_type;location;lat;lon;timestamp;pressure;altitude;pressure_sealevel;temperature;humidity
47809;BME280;33573;38.790;-77.084;2024-03-08T00:01:13;101467.12;;;19.94;31.23
47809;BME280;33573;38.790;-77.084;2024-03-08T00:03:39;101467.99;;;19.91;31.20
47809;BME280;33573;38.790;-77.084;2024-03-08T00:06:05;101465.94;;;20.14;31.18
47809;BME280;33573;38.790;-77.084;2024-03-08T00:08:30;101470.92;;;19.84;31.22
47809;BME280;33573;38.790;-77.084;2024-03-08T00:10:55;101476.76;;;19.80;31.32
47809;BME280;33573;38.790;-77.084;2024-03-08T00:13:21;101486.38;;;19.82;31.28
47809;BME280;33573;38.790;-77.084;2024-03-08T00:15:47;101497.86;;;19.77;31.35
47809;BME280;33573;38.790;-77.084;2024-03-08T00:18:11;101503.32;;;19.78;31.23
47809;BME280;33573;38.790;-77.084;2024-03-08T00:20:37;101507.80;;;19.80;31.25
47809;BME280;33573;38.790;-77.084;2024-03-08T00:23:02;101509.32;;;19.77;31.30
47809;BME280;33573;38.790;-77.084;2024-03-08T00:25:28;101506.55;;;19.77;31.31
47809;BME280;33573;38.790;-77.084;2024-03-08T00:27:53;101504.00;;;19.85;31.21
47809;BME280;33573;38.790;-77.084;2024-03-08T00:30:19;101508.30;;;19.84;31.23
47809;BME280;33573;38.790;-77.084;2024-03-08T00:32:44;101517.62;;;19.89;31.17
47809;BME280;33573;38.790;-77.084;2024-03-08T00:35:09;101523.36;;;19.92;31.12
47809;BME280;33573;38.790;-77.084;2024-03-08T00:37:35;101527.68;;;19.88;31.13
47809;BME280;33573;38.790;-77.084;2024-03-08T00:40:00;101524.91;;;19.84;31.17
47809;BME280;33573;38.790;-77.084;2024-03-08T00:42:26;101522.59;;;20.06;31.21
47809;BME280;33573;38.790;-77.084;2024-03-08T00:44:51;101529.36;;;19.87;31.16
47809;BME280;33573;38.790;-77.084;2024-03-08T00:47:17;101535.10;;;19.85;31.18
47809;BME280;33573;38.790;-77.084;2024-03-08T00:49:42;101536.65;;;20.07;31.20
47809;BME280;33573;38.790;-77.084;2024-03-08T00:52:08;101541.96;;;19.78;31.28
47809;BME280;33573;38.790;-77.084;2024-03-08T00:54:33;101548.83;;;19.89;31.20
47809;BME280;33573;38.790;-77.084;2024-03-08T00:56:58;101552.43;;;19.82;31.30
47809;BME280;33573;38.790;-77.084;2024-03-08T00:59:24;101554.96;;;20.28;31.42
47809;BME280;33573;38.790;-77.084;2024-03-08T01:01:49;101561.93;;;20.07;31.32
47809;BME280;33573;38.790;-77.084;2024-03-08T01:04:15;101565.74;;;19.81;31.30
47809;BME280;33573;38.790;-77.084;2024-03-08T01:06:40;101571.46;;;19.85;31.30
47809;BME280;33573;38.790;-77.084;2024-03-08T01:09:05;101573.88;;;20.09;31.27
47809;BME280;33573;38.790;-77.084;2024-03-08T01:11:31;101578.08;;;19.79;31.33
47809;BME280;33573;38.790;-77.084;2024-03-08T01:13:56;101582.29;;;19.78;31.33
47809;BME280;33573;38.790;-77.084;2024-03-08T01:16:22;101585.57;;;19.79;31.33
47809;BME280;33573;38.790;-77.084;2024-03-08T01:18:48;101583.04;;;19.80;31.35
47809;BME280;33573;38.790;-77.084;2024-03-08T01:21:13;101583.36;;;19.87;31.26
47809;BME280;33573;38.790;-77.084;2024-03-08T01:23:38;101590.89;;;19.82;31.34
47809;BME280;33573;38.790;-77.084;2024-03-08T01:26:04;101594.00;;;20.04;31.32
47809;BME280;33573;38.790;-77.084;2024-03-08T01:28:29;101599.75;;;19.86;31.28
47809;BME280;33573;38.790;-77.084;2024-03-08T01:30:54;101601.69;;;20.02;31.36
47809;BME280;33573;38.790;-77.084;2024-03-08T01:33:20;101605.34;;;19.99;31.36
47809;BME280;33573;38.790;-77.084;2024-03-08T01:35:45;101609.41;;;19.69;31.42
47809;BME280;33573;38.790;-77.084;2024-03-08T01:38:11;101613.41;;;19.71;31.37
47809;BME280;33573;38.790;-77.084;2024-03-08T01:40:38;101619.43;;;19.87;31.44
47809;BME280;33573;38.790;-77.084;2024-03-08T01:45:27;101627.10;;;19.95;31.38
47809;BME280;33573;38.790;-77.084;2024-03-08T01:47:52;101627.01;;;19.95;31.39
47809;BME280;33573;38.790;-77.084;2024-03-08T01:50:18;101630.99;;;19.90;31.41
47809;BME280;33573;38.790;-77.084;2024-03-08T01:52:43;101636.40;;;19.93;31.38
47809;BME280;33573;38.790;-77.084;2024-03-08T01:55:09;101635.44;;;19.75;31.29
47809;BME280;33573;38.790;-77.084;2024-03-08T01:57:35;101637.11;;;19.94;31.34
47809;BME280;33573;38.790;-77.084;2024-03-08T02:00:00;101640.19;;;19.72;31.29
47809;BME280;33573;38.790;-77.084;2024-03-08T02:02:25;101640.19;;;19.91;31.32
47809;BME280;33573;38.790;-77.084;2024-03-08T02:04:50;101643.35;;;19.81;31.43
47809;BME280;33573;38.790;-77.084;2024-03-08T02:07:16;101648.39;;;19.57;31.42
47809;BME280;33573;38.790;-77.084;2024-03-08T02:09:41;101649.67;;;19.61;31.38
47809;BME280;33573;38.790;-77.084;2024-03-08T02:12:08;101655.39;;;19.49;31.47
47809;BME280;33573;38.790;-77.084;2024-03-08T02:14:32;101660.51;;;19.61;31.59
47809;BME280;33573;38.790;-77.084;2024-03-08T02:17:01;101668.35;;;19.45;31.49
47809;BME280;33573;38.790;-77.084;2024-03-08T02:19:23;101675.24;;;19.66;31.58
47809;BME280;33573;38.790;-77.084;2024-03-08T02:21:48;101682.02;;;19.54;31.69
47809;BME280;33573;38.790;-77.084;2024-03-08T02:24:14;101687.61;;;19.61;31.62
47809;BME280;33573;38.790;-77.084;2024-03-08T02:26:39;101692.04;;;19.69;31.53
47809;BME280;33573;38.790;-77.084;2024-03-08T02:29:05;101696.76;;;19.67;31.54
47809;BME280;33573;38.790;-77.084;2024-03-08T02:31:30;101699.43;;;19.44;31.53
47809;BME280;33573;38.790;-77.084;2024-03-08T02:33:56;101708.48;;;19.34;31.59
47809;BME280;33573;38.790;-77.084;2024-03-08T02:36:21;101709.75;;;19.39;31.57
47809;BME280;33573;38.790;-77.084;2024-03-08T02:38:47;101716.54;;;19.63;31.54
47809;BME280;33573;38.790;-77.084;2024-03-08T02:41:12;101716.01;;;19.39;31.54
47809;BME280;33573;38.790;-77.084;2024-03-08T02:43:37;101721.97;;;19.59;31.57
47809;BME280;33573;38.790;-77.084;2024-03-08T02:46:03;101722.27;;;19.46;31.72
47809;BME280;33573;38.790;-77.084;2024-03-08T02:48:28;101721.03;;;19.35;31.54
47809;BME280;33573;38.790;-77.084;2024-03-08T02:50:54;101721.30;;;19.74;31.63
47809;BME280;33573;38.790;-77.084;2024-03-08T02:53:19;101722.67;;;19.66;31.71
47809;BME280;33573;38.790;-77.084;2024-03-08T02:55:45;101725.44;;;19.46;31.65
47809;BME280;33573;38.790;-77.084;2024-03-08T02:58:10;101724.94;;;19.46;31.65
47809;BME280;33573;38.790;-77.084;2024-03-08T03:00:36;101726.20;;;19.81;31.55
47809;BME280;33573;38.790;-77.084;2024-03-08T03:03:01;101724.82;;;19.28;31.58
47809;BME280;33573;38.790;-77.084;2024-03-08T03:05:27;101730.33;;;19.54;31.57
47809;BME280;33573;38.790;-77.084;2024-03-08T03:07:52;101735.48;;;19.58;31.50
47809;BME280;33573;38.790;-77.084;2024-03-08T03:10:18;101739.75;;;19.29;31.56
47809;BME280;33573;38.790;-77.084;2024-03-08T03:12:43;101737.56;;;19.52;31.54
47809;BME280;33573;38.790;-77.084;2024-03-08T03:15:09;101740.12;;;19.41;31.62
47809;BME280;33573;38.790;-77.084;2024-03-08T03:17:34;101745.24;;;19.50;31.49
47809;BME280;33573;38.790;-77.084;2024-03-08T03:19:59;101747.83;;;19.48;31.54
47809;BME280;33573;38.790;-77.084;2024-03-08T03:22:24;101747.21;;;19.69;31.49
47809;BME280;33573;38.790;-77.084;2024-03-08T03:24:50;101747.90;;;19.43;31.53
47809;BME280;33573;38.790;-77.084;2024-03-08T03:27:15;101746.53;;;19.35;31.61
47809;BME280;33573;38.790;-77.084;2024-03-08T03:29:41;101751.98;;;19.22;31.75
47809;BME280;33573;38.790;-77.084;2024-03-08T03:32:06;101758.49;;;19.32;31.88
47809;BME280;33573;38.790;-77.084;2024-03-08T03:34:32;101761.44;;;19.49;31.66
47809;BME280;33573;38.790;-77.084;2024-03-08T03:36:57;101763.00;;;19.20;31.72
47809;BME280;33573;38.790;-77.084;2024-03-08T03:39:23;101765.78;;;19.25;31.61
47809;BME280;33573;38.790;-77.084;2024-03-08T03:41:48;101763.02;;;19.34;31.47
47809;BME280;33573;38.790;-77.084;2024-03-08T03:44:14;101759.86;;;19.23;31.60
47809;BME280;33573;38.790;-77.084;2024-03-08T03:46:42;101762.19;;;19.13;31.68
47809;BME280;33573;38.790;-77.084;2024-03-08T03:49:04;101763.71;;;19.39;31.61
47809;BME280;33573;38.790;-77.084;2024-03-08T03:51:30;101771.64;;;19.03;31.74
47809;BME280;33573;38.790;-77.084;2024-03-08T03:53:55;101772.21;;;19.23;31.79
47809;BME280;33573;38.790;-77.084;2024-03-08T03:56:25;101772.68;;;19.28;31.68
47809;BME280;33573;38.790;-77.084;2024-03-08T03:58:46;101776.68;;;19.00;31.70
47809;BME280;33573;38.790;-77.084;2024-03-08T04:01:12;101779.20;;;19.30;31.58
47809;BME280;33573;38.790;-77.084;2024-03-08T04:03:37;101780.43;;;19.17;31.68
47809;BME280;33573;38.790;-77.084;2024-03-08T04:06:03;101785.01;;;19.12;31.74
47809;BME280;33573;38.790;-77.084;2024-03-08T04:08:28;101787.04;;;19.11;31.71
47809;BME280;33573;38.790;-77.084;2024-03-08T04:10:53;101783.92;;;19.01;31.88
47809;BME280;33573;38.790;-77.084;2024-03-08T04:13:19;101786.38;;;19.00;31.58
47809;BME280;33573;38.790;-77.084;2024-03-08T04:15:44;101786.13;;;19.06;31.79
47809;BME280;33573;38.790;-77.084;2024-03-08T04:18:10;101792.11;;;19.13;31.65
47809;BME280;33573;38.790;-77.084;2024-03-08T04:20:35;101790.57;;;19.07;31.71
47809;BME280;33573;38.790;-77.084;2024-03-08T04:23:01;101795.73;;;19.00;31.72
47809;BME280;33573;38.790;-77.084;2024-03-08T04:25:26;101796.98;;;19.01;31.75
47809;BME280;33573;38.790;-77.084;2024-03-08T04:27:52;101801.18;;;19.00;31.70
47809;BME280;33573;38.790;-77.084;2024-03-08T04:30:17;101802.56;;;19.21;31.72
47809;BME280;33573;38.790;-77.084;2024-03-08T04:32:43;101802.72;;;18.96;31.74
47809;BME280;33573;38.790;-77.084;2024-03-08T04:35:08;101799.45;;;19.02;31.59
47809;BME280;33573;38.790;-77.084;2024-03-08T04:37:33;101803.15;;;18.91;31.66
47809;BME280;33573;38.790;-77.084;2024-03-08T04:39:59;101808.63;;;19.01;31.56
47809;BME280;33573;38.790;-77.084;2024-03-08T04:42:24;101810.86;;;18.95;31.67
47809;BME280;33573;38.790;-77.084;2024-03-08T04:44:50;101812.96;;;18.71;31.91
47809;BME280;33573;38.790;-77.084;2024-03-08T04:47:15;101816.19;;;18.45;31.95
47809;BME280;33573;38.790;-77.084;2024-03-08T04:49:40;101820.81;;;19.07;31.73
47809;BME280;33573;38.790;-77.084;2024-03-08T04:52:06;101826.27;;;18.83;31.76
47809;BME280;33573;38.790;-77.084;2024-03-08T04:54:32;101829.66;;;18.90;31.65
47809;BME280;33573;38.790;-77.084;2024-03-08T04:56:57;101837.79;;;18.79;31.74
47809;BME280;33573;38.790;-77.084;2024-03-08T04:59:22;101841.20;;;18.84;31.61
47809;BME280;33573;38.790;-77.084;2024-03-08T05:01:48;101842.22;;;18.79;31.57
47809;BME280;33573;38.790;-77.084;2024-03-08T05:04:13;101839.63;;;18.73;31.67
47809;BME280;33573;38.790;-77.084;2024-03-08T05:06:39;101840.26;;;18.47;31.91
47809;BME280;33573;38.790;-77.084;2024-03-08T05:09:04;101840.58;;;18.28;32.07
47809;BME280;33573;38.790;-77.084;2024-03-08T05:11:29;101838.39;;;18.44;31.86
47809;BME280;33573;38.790;-77.084;2024-03-08T05:13:55;101835.90;;;18.49;31.81
47809;BME280;33573;38.790;-77.084;2024-03-08T05:16:21;101833.69;;;18.44;31.91
47809;BME280;33573;38.790;-77.084;2024-03-08T05:18:46;101835.02;;;18.47;31.88
47809;BME280;33573;38.790;-77.084;2024-03-08T05:21:11;101833.83;;;18.72;31.86
47809;BME280;33573;38.790;-77.084;2024-03-08T05:23:37;101838.60;;;18.55;31.77
47809;BME280;33573;38.790;-77.084;2024-03-08T05:26:02;101844.21;;;18.57;31.71
47809;BME280;33573;38.790;-77.084;2024-03-08T05:28:28;101845.25;;;18.52;31.75
47809;BME280;33573;38.790;-77.084;2024-03-08T05:30:53;101849.60;;;18.37;31.89
47809;BME280;33573;38.790;-77.084;2024-03-08T05:33:18;101851.71;;;18.45;31.78
47809;BME280;33573;38.790;-77.084;2024-03-08T05:35:44;101849.61;;;18.43;32.05
47809;BME280;33573;38.790;-77.084;2024-03-08T05:38:09;101848.45;;;18.45;32.02
47809;BME280;33573;38.790;-77.084;2024-03-08T05:40:35;101852.17;;;17.89;32.37
47809;BME280;33573;38.790;-77.084;2024-03-08T05:43:00;101847.16;;;18.55;32.11
47809;BME280;33573;38.790;-77.084;2024-03-08T05:45:26;101844.38;;;18.47;31.97
47809;BME280;33573;38.790;-77.084;2024-03-08T05:47:52;101849.05;;;18.31;32.09
47809;BME280;33573;38.790;-77.084;2024-03-08T05:50:17;101852.28;;;18.40;32.00
47809;BME280;33573;38.790;-77.084;2024-03-08T05:52:42;101856.46;;;18.39;32.00
47809;BME280;33573;38.790;-77.084;2024-03-08T05:55:08;101860.76;;;18.28;31.86
47809;BME280;33573;38.790;-77.084;2024-03-08T05:57:33;101860.92;;;18.53;31.83
47809;BME280;33573;38.790;-77.084;2024-03-08T05:59:58;101860.95;;;18.57;32.03
47809;BME280;33573;38.790;-77.084;2024-03-08T06:02:24;101862.80;;;18.19;31.90
47809;BME280;33573;38.790;-77.084;2024-03-08T06:04:49;101862.49;;;18.74;31.81
47809;BME280;33573;38.790;-77.084;2024-03-08T06:07:15;101868.93;;;18.30;31.99
47809;BME280;33573;38.790;-77.084;2024-03-08T06:09:40;101873.60;;;17.91;32.17
47809;BME280;33573;38.790;-77.084;2024-03-08T06:12:06;101876.29;;;18.34;32.20
47809;BME280;33573;38.790;-77.084;2024-03-08T06:14:31;101878.60;;;18.08;32.25
47809;BME280;33573;38.790;-77.084;2024-03-08T06:16:56;101877.93;;;18.28;32.26
47809;BME280;33573;38.790;-77.084;2024-03-08T06:19:22;101881.95;;;18.11;32.18
47809;BME280;33573;38.790;-77.084;2024-03-08T06:21:47;101884.52;;;18.12;32.17
47809;BME280;33573;38.790;-77.084;2024-03-08T06:24:13;101884.42;;;17.97;32.03
47809;BME280;33573;38.790;-77.084;2024-03-08T06:26:38;101886.03;;;18.48;31.93
47809;BME280;33573;38.790;-77.084;2024-03-08T06:29:04;101887.85;;;17.83;32.17
47809;BME280;33573;38.790;-77.084;2024-03-08T06:31:29;101891.69;;;18.02;31.95
47809;BME280;33573;38.790;-77.084;2024-03-08T06:33:55;101900.47;;;18.47;31.90
47809;BME280;33573;38.790;-77.084;2024-03-08T06:36:20;101899.64;;;17.91;32.28
47809;BME280;33573;38.790;-77.084;2024-03-08T06:38:46;101905.79;;;17.86;32.29
47809;BME280;33573;38.790;-77.084;2024-03-08T06:41:11;101907.36;;;17.62;32.20
47809;BME280;33573;38.790;-77.084;2024-03-08T06:43:36;101908.49;;;18.31;32.02
47809;BME280;33573;38.790;-77.084;2024-03-08T06:46:02;101908.81;;;17.95;32.13
47809;BME280;33573;38.790;-77.084;2024-03-08T06:48:27;101911.77;;;18.15;32.20
47809;BME280;33573;38.790;-77.084;2024-03-08T06:50:53;101910.27;;;18.11;32.13
47809;BME280;33573;38.790;-77.084;2024-03-08T06:53:18;101913.66;;;18.16;32.13
47809;BME280;33573;38.790;-77.084;2024-03-08T06:55:43;101912.24;;;18.18;32.11
47809;BME280;33573;38.790;-77.084;2024-03-08T06:58:09;101912.83;;;18.32;31.95
47809;BME280;33573;38.790;-77.084;2024-03-08T07:00:34;101912.66;;;18.03;31.96
47809;BME280;33573;38.790;-77.084;2024-03-08T07:03:00;101907.24;;;18.20;32.08
47809;BME280;33573;38.790;-77.084;2024-03-08T07:05:25;101909.70;;;17.90;32.10
47809;BME280;33573;38.790;-77.084;2024-03-08T07:07:51;101915.21;;;17.67;32.09
47809;BME280;33573;38.790;-77.084;2024-03-08T07:10:16;101920.84;;;17.99;32.21
47809;BME280;33573;38.790;-77.084;2024-03-08T07:12:42;101918.40;;;18.06;32.11
47809;BME280;33573;38.790;-77.084;2024-03-08T07:15:07;101917.85;;;17.88;32.32
47809;BME280;33573;38.790;-77.084;2024-03-08T07:17:32;101919.41;;;17.72;32.46
47809;BME280;33573;38.790;-77.084;2024-03-08T07:19:58;101924.73;;;17.96;32.18
47809;BME280;33573;38.790;-77.084;2024-03-08T07:22:23;101922.50;;;17.71;32.46
47809;BME280;33573;38.790;-77.084;2024-03-08T07:24:49;101921.15;;;17.89;32.26
47809;BME280;33573;38.790;-77.084;2024-03-08T07:27:14;101919.29;;;17.74;32.12
47809;BME280;33573;38.790;-77.084;2024-03-08T07:29:40;101916.76;;;18.39;31.93
47809;BME280;33573;38.790;-77.084;2024-03-08T07:32:05;101914.42;;;17.94;31.87
47809;BME280;33573;38.790;-77.084;2024-03-08T07:34:31;101914.88;;;17.81;32.01
47809;BME280;33573;38.790;-77.084;2024-03-08T07:36:56;101917.66;;;17.99;32.05
47809;BME280;33573;38.790;-77.084;2024-03-08T07:39:21;101920.11;;;18.00;31.97
47809;BME280;33573;38.790;-77.084;2024-03-08T07:41:47;101913.93;;;17.83;32.16
47809;BME280;33573;38.790;-77.084;2024-03-08T07:44:12;101910.84;;;17.65;32.10
47809;BME280;33573;38.790;-77.084;2024-03-08T07:46:38;101911.61;;;17.65;32.31
47809;BME280;33573;38.790;-77.084;2024-03-08T07:49:03;101912.86;;;17.71;32.20
47809;BME280;33573;38.790;-77.084;2024-03-08T07:51:29;101914.79;;;17.68;32.22
47809;BME280;33573;38.790;-77.084;2024-03-08T07:53:54;101917.93;;;17.42;32.53
47809;BME280;33573;38.790;-77.084;2024-03-08T07:56:20;101926.67;;;17.46;32.50
47809;BME280;33573;38.790;-77.084;2024-03-08T07:58:45;101933.08;;;17.82;32.08
47809;BME280;33573;38.790;-77.084;2024-03-08T08:01:16;101940.17;;;17.66;32.24
47809;BME280;33573;38.790;-77.084;2024-03-08T08:03:36;101947.18;;;18.05;32.09
47809;BME280;33573;38.790;-77.084;2024-03-08T08:06:01;101943.92;;;17.65;32.22
47809;BME280;33573;38.790;-77.084;2024-03-08T08:08:27;101945.97;;;17.53;32.31
47809;BME280;33573;38.790;-77.084;2024-03-08T08:10:52;101946.23;;;17.80;32.07
47809;BME280;33573;38.790;-77.084;2024-03-08T08:13:17;101942.61;;;17.70;32.16
47809;BME280;33573;38.790;-77.084;2024-03-08T08:15:43;101940.94;;;17.64;32.19
47809;BME280;33573;38.790;-77.084;2024-03-08T08:18:08;101943.18;;;17.72;32.06
47809;BME280;33573;38.790;-77.084;2024-03-08T08:20:34;101945.77;;;17.63;32.14
47809;BME280;33573;38.790;-77.084;2024-03-08T08:22:59;101941.55;;;17.48;32.27
47809;BME280;33573;38.790;-77.084;2024-03-08T08:25:25;101934.85;;;17.45;32.05
47809;BME280;33573;38.790;-77.084;2024-03-08T08:27:50;101928.95;;;17.52;32.21
47809;BME280;33573;38.790;-77.084;2024-03-08T08:30:16;101924.18;;;17.36;32.33
47809;BME280;33573;38.790;-77.084;2024-03-08T08:32:41;101918.31;;;17.13;32.40
47809;BME280;33573;38.790;-77.084;2024-03-08T08:35:07;101918.46;;;17.40;32.06
47809;BME280;33573;38.790;-77.084;2024-03-08T08:37:32;101916.94;;;17.77;32.17
47809;BME280;33573;38.790;-77.084;2024-03-08T08:39:57;101921.75;;;17.56;32.11
47809;BME280;33573;38.790;-77.084;2024-03-08T08:42:23;101927.49;;;17.67;31.94
47809;BME280;33573;38.790;-77.084;2024-03-08T08:44:48;101925.71;;;17.55;32.07
47809;BME280;33573;38.790;-77.084;2024-03-08T08:47:14;101929.79;;;17.55;31.85
47809;BME280;33573;38.790;-77.084;2024-03-08T08:49:39;101933.84;;;17.96;31.61
47809;BME280;33573;38.790;-77.084;2024-03-08T08:52:05;101933.59;;;17.73;31.83
47809;BME280;33573;38.790;-77.084;2024-03-08T08:54:30;101934.97;;;18.08;31.90
47809;BME280;33573;38.790;-77.084;2024-03-08T08:56:55;101940.48;;;17.54;31.97
47809;BME280;33573;38.790;-77.084;2024-03-08T08:59:21;101946.13;;;17.81;31.92
47809;BME280;33573;38.790;-77.084;2024-03-08T09:01:46;101948.17;;;18.00;31.72
47809;BME280;33573;38.790;-77.084;2024-03-08T09:04:12;101949.85;;;17.38;32.13
47809;BME280;33573;38.790;-77.084;2024-03-08T09:06:37;101954.72;;;17.43;32.07
47809;BME280;33573;38.790;-77.084;2024-03-08T09:09:03;101961.03;;;17.73;31.98
47809;BME280;33573;38.790;-77.084;2024-03-08T09:11:28;101969.12;;;17.48;32.00
47809;BME280;33573;38.790;-77.084;2024-03-08T09:13:53;101975.74;;;17.47;32.02
47809;BME280;33573;38.790;-77.084;2024-03-08T09:16:19;101984.40;;;17.18;32.34
47809;BME280;33573;38.790;-77.084;2024-03-08T09:18:44;101994.00;;;17.34;32.12
47809;BME280;33573;38.790;-77.084;2024-03-08T09:21:10;101999.88;;;17.35;32.08
47809;BME280;33573;38.790;-77.084;2024-03-08T09:23:35;102002.24;;;17.63;31.76
47809;BME280;33573;38.790;-77.084;2024-03-08T09:26:01;102007.04;;;17.58;31.80
47809;BME280;33573;38.790;-77.084;2024-03-08T09:28:26;102017.96;;;17.49;31.83
47809;BME280;33573;38.790;-77.084;2024-03-08T09:30:51;102029.54;;;17.47;31.84
47809;BME280;33573;38.790;-77.084;2024-03-08T09:33:17;102041.85;;;17.41;31.94
47809;BME280;33573;38.790;-77.084;2024-03-08T09:35:43;102046.22;;;17.27;32.03
47809;BME280;33573;38.790;-77.084;2024-03-08T09:38:08;102046.07;;;17.44;31.85
47809;BME280;33573;38.790;-77.084;2024-03-08T09:40:33;102044.69;;;17.33;32.00
47809;BME280;33573;38.790;-77.084;2024-03-08T09:42:59;102044.71;;;17.39;31.93
47809;BME280;33573;38.790;-77.084;2024-03-08T09:45:25;102047.17;;;17.35;31.94
47809;BME280;33573;38.790;-77.084;2024-03-08T09:47:50;102053.20;;;17.44;31.82
47809;BME280;33573;38.790;-77.084;2024-03-08T09:50:15;102062.15;;;17.50;32.00
47809;BME280;33573;38.790;-77.084;2024-03-08T09:52:42;102068.51;;;17.44;32.05
47809;BME280;33573;38.790;-77.084;2024-03-08T09:55:07;102069.06;;;17.32;31.90
47809;BME280;33573;38.790;-77.084;2024-03-08T09:57:32;102069.59;;;17.46;32.02
47809;BME280;33573;38.790;-77.084;2024-03-08T09:59:57;102072.02;;;17.44;32.02
47809;BME280;33573;38.790;-77.084;2024-03-08T10:02:22;102080.43;;;17.19;31.98
47809;BME280;33573;38.790;-77.084;2024-03-08T10:04:48;102083.64;;;17.19;31.97
47809;BME280;33573;38.790;-77.084;2024-03-08T10:07:13;102083.54;;;17.65;31.97
47809;BME280;33573;38.790;-77.084;2024-03-08T10:09:39;102082.07;;;17.09;32.08
47809;BME280;33573;38.790;-77.084;2024-03-08T10:12:07;102086.35;;;17.22;31.93
47809;BME280;33573;38.790;-77.084;2024-03-08T10:14:30;102087.66;;;17.39;31.68
47809;BME280;33573;38.790;-77.084;2024-03-08T10:16:55;102093.44;;;17.26;31.79
47809;BME280;33573;38.790;-77.084;2024-03-08T10:19:21;102103.58;;;17.25;31.82
47809;BME280;33573;38.790;-77.084;2024-03-08T10:21:49;102110.19;;;17.75;31.83
47809;BME280;33573;38.790;-77.084;2024-03-08T10:24:11;102115.82;;;17.68;31.63
47809;BME280;33573;38.790;-77.084;2024-03-08T10:26:37;102111.72;;;17.25;31.80
47809;BME280;33573;38.790;-77.084;2024-03-08T10:29:04;102108.98;;;17.48;31.82
47809;BME280;33573;38.790;-77.084;2024-03-08T10:31:28;102112.55;;;17.50;31.50
47809;BME280;33573;38.790;-77.084;2024-03-08T10:33:53;102112.77;;;17.76;31.26
47809;BME280;33573;38.790;-77.084;2024-03-08T10:36:19;102121.67;;;17.67;31.16
47809;BME280;33573;38.790;-77.084;2024-03-08T10:38:44;102117.74;;;18.00;31.08
47809;BME280;33573;38.790;-77.084;2024-03-08T10:41:10;102119.58;;;17.87;30.96
47809;BME280;33573;38.790;-77.084;2024-03-08T10:43:45;102121.70;;;17.97;30.89
47809;BME280;33573;38.790;-77.084;2024-03-08T10:46:09;102123.79;;;17.74;30.80
47809;BME280;33573;38.790;-77.084;2024-03-08T10:48:29;102122.67;;;18.34;30.81
47809;BME280;33573;38.790;-77.084;2024-03-08T10:50:52;102124.65;;;18.12;30.85
47809;BME280;33573;38.790;-77.084;2024-03-08T10:53:18;102121.77;;;17.92;30.83
47809;BME280;33573;38.790;-77.084;2024-03-08T10:55:43;102125.23;;;18.17;30.80
47809;BME280;33573;38.790;-77.084;2024-03-08T10:58:08;102129.60;;;18.21;30.72
47809;BME280;33573;38.790;-77.084;2024-03-08T11:00:33;102135.85;;;17.88;30.86
47809;BME280;33573;38.790;-77.084;2024-03-08T11:02:59;102134.78;;;18.15;30.85
47809;BME280;33573;38.790;-77.084;2024-03-08T11:05:36;102132.45;;;18.03;30.74
47809;BME280;33573;38.790;-77.084;2024-03-08T11:07:50;102139.08;;;18.29;30.77
47809;BME280;33573;38.790;-77.084;2024-03-08T11:10:19;102140.60;;;18.36;30.72
47809;BME280;33573;38.790;-77.084;2024-03-08T11:12:40;102136.22;;;18.34;30.75
47809;BME280;33573;38.790;-77.084;2024-03-08T11:15:12;102136.72;;;18.29;30.77
47809;BME280;33573;38.790;-77.084;2024-03-08T11:17:44;102136.85;;;17.96;30.89
47809;BME280;33573;38.790;-77.084;2024-03-08T11:19:57;102137.01;;;17.99;30.87
47809;BME280;33573;38.790;-77.084;2024-03-08T11:22:25;102136.22;;;18.20;30.93
47809;BME280;33573;38.790;-77.084;2024-03-08T11:24:48;102137.37;;;18.04;30.88
47809;BME280;33573;38.790;-77.084;2024-03-08T11:27:13;102133.34;;;18.31;30.87
47809;BME280;33573;38.790;-77.084;2024-03-08T11:29:39;102138.51;;;18.54;30.97
47809;BME280;33573;38.790;-77.084;2024-03-08T11:32:07;102143.60;;;18.11;30.90
47809;BME280;33573;38.790;-77.084;2024-03-08T11:34:29;102148.82;;;18.04;31.07
47809;BME280;33573;38.790;-77.084;2024-03-08T11:36:55;102155.16;;;18.20;31.06
47809;BME280;33573;38.790;-77.084;2024-03-08T11:39:20;102166.56;;;18.11;31.19
47809;BME280;33573;38.790;-77.084;2024-03-08T11:41:46;102167.40;;;17.94;31.15
47809;BME280;33573;38.790;-77.084;2024-03-08T11:44:11;102171.56;;;18.30;31.04
47809;BME280;33573;38.790;-77.084;2024-03-08T11:46:36;102175.60;;;18.12;30.92
47809;BME280;33573;38.790;-77.084;2024-03-08T11:49:02;102176.55;;;18.24;31.17
47809;BME280;33573;38.790;-77.084;2024-03-08T11:51:27;102173.77;;;18.70;31.07
47809;BME280;33573;38.790;-77.084;2024-03-08T11:53:53;102178.52;;;18.14;31.50
47809;BME280;33573;38.790;-77.084;2024-03-08T11:56:18;102181.81;;;18.16;31.23
47809;BME280;33573;38.790;-77.084;2024-03-08T11:58:52;102184.73;;;18.11;31.33
47809;BME280;33573;38.790;-77.084;2024-03-08T12:01:10;102187.77;;;18.12;31.26
47809;BME280;33573;38.790;-77.084;2024-03-08T12:03:34;102191.50;;;18.28;31.33
47809;BME280;33573;38.790;-77.084;2024-03-08T12:06:00;102196.51;;;18.57;31.25
47809;BME280;33573;38.790;-77.084;2024-03-08T12:08:25;102204.14;;;18.13;31.34
47809;BME280;33573;38.790;-77.084;2024-03-08T12:10:51;102202.94;;;18.39;31.33
47809;BME280;33573;38.790;-77.084;2024-03-08T12:13:17;102204.83;;;18.33;31.42
47809;BME280;33573;38.790;-77.084;2024-03-08T12:15:42;102210.52;;;18.10;31.46
47809;BME280;33573;38.790;-77.084;2024-03-08T12:18:07;102209.64;;;18.52;31.54
47809;BME280;33573;38.790;-77.084;2024-03-08T12:20:32;102212.73;;;18.20;31.44
47809;BME280;33573;38.790;-77.084;2024-03-08T12:22:59;102215.00;;;17.76;31.61